createdAt,value
2022-10-06T00:02:00.784Z,12.80
2022-10-06T00:04:31.118Z,12.80
2022-10-06T00:07:00.177Z,12.70
2022-10-06T00:09:29.441Z,12.70
2022-10-06T00:11:58.486Z,12.60
2022-10-06T00:14:27.512Z,12.60
2022-10-06T00:16:56.579Z,12.60
2022-10-06T00:19:25.683Z,12.60
2022-10-06T00:21:56.138Z,12.50
2022-10-06T00:24:25.185Z,12.60
2022-10-06T00:26:54.279Z,12.50
2022-10-06T00:29:24.023Z,12.40
2022-10-06T00:31:53.980Z,12.40
2022-10-06T00:34:22.980Z,12.40
2022-10-06T00:36:52.171Z,12.40
2022-10-06T00:39:22.594Z,12.40
2022-10-06T00:41:52.057Z,12.40
2022-10-06T00:44:21.265Z,12.40
2022-10-06T00:46:51.846Z,12.30
2022-10-06T00:49:25.169Z,12.30
2022-10-06T00:51:56.666Z,12.30
2022-10-06T00:54:27.705Z,12.30
2022-10-06T00:56:57.690Z,12.30
2022-10-06T00:59:26.800Z,12.30
2022-10-06T01:01:58.427Z,12.30
2022-10-06T01:04:28.326Z,12.20
2022-10-06T01:06:59.945Z,12.20
2022-10-06T01:09:31.745Z,12.20
2022-10-06T01:12:06.057Z,12.20
2022-10-06T01:14:36.905Z,12.20
2022-10-06T01:17:10.724Z,12.20
2022-10-06T01:19:50.764Z,12.10
2022-10-06T01:22:28.146Z,12.20
2022-10-06T01:24:58.277Z,12.20
2022-10-06T01:27:30.704Z,12.10
2022-10-06T01:30:01.078Z,12.10
2022-10-06T01:32:35.276Z,12.10
2022-10-06T01:35:04.709Z,12.10
2022-10-06T01:37:35.165Z,12.10
2022-10-06T01:40:04.254Z,12.10
2022-10-06T01:42:33.884Z,12.10
2022-10-06T01:45:05.227Z,12.00
2022-10-06T01:47:35.253Z,11.90
2022-10-06T01:50:06.847Z,11.90
2022-10-06T01:52:37.709Z,11.90
2022-10-06T01:55:07.919Z,12.00
2022-10-06T01:57:41.054Z,12.00
2022-10-06T02:00:12.769Z,12.00
2022-10-06T02:02:42.464Z,12.00
2022-10-06T02:05:12.374Z,12.00
2022-10-06T02:07:46.505Z,12.00
2022-10-06T02:10:18.004Z,12.00
2022-10-06T02:12:52.275Z,11.90
2022-10-06T02:15:23.575Z,12.00
2022-10-06T02:17:54.093Z,12.00
2022-10-06T02:20:28.388Z,12.00
2022-10-06T02:22:58.913Z,12.00
2022-10-06T02:25:28.126Z,12.00
2022-10-06T02:27:57.267Z,12.00
2022-10-06T02:30:26.222Z,12.00
2022-10-06T02:32:56.080Z,12.00
2022-10-06T02:35:24.993Z,12.00
2022-10-06T02:37:54.259Z,11.90
2022-10-06T02:40:25.063Z,11.90
2022-10-06T02:42:54.005Z,12.00
2022-10-06T02:45:24.564Z,12.00
2022-10-06T02:47:55.566Z,12.00
2022-10-06T02:50:24.840Z,12.00
2022-10-06T02:52:54.380Z,12.00
2022-10-06T02:55:24.930Z,12.00
2022-10-06T02:57:55.864Z,11.90
2022-10-06T03:00:24.873Z,12.00
2022-10-06T03:02:54.246Z,11.90
2022-10-06T03:05:23.223Z,12.00
2022-10-06T03:07:52.366Z,12.00
2022-10-06T03:10:21.612Z,11.90
2022-10-06T03:12:51.996Z,11.90
2022-10-06T03:15:21.145Z,12.00
2022-10-06T03:17:51.258Z,11.90
2022-10-06T03:20:20.546Z,11.90
2022-10-06T03:22:49.616Z,12.00
2022-10-06T03:25:18.818Z,11.90
2022-10-06T03:27:47.871Z,12.00
2022-10-06T03:30:19.756Z,11.90
2022-10-06T03:32:49.055Z,11.90
2022-10-06T03:35:17.988Z,11.90
2022-10-06T03:37:47.152Z,11.90
2022-10-06T03:40:16.772Z,11.90
2022-10-06T03:42:45.717Z,11.90
2022-10-06T03:45:14.930Z,11.80
2022-10-06T03:47:45.225Z,11.90
2022-10-06T03:50:14.251Z,11.90
2022-10-06T03:52:43.303Z,11.90
2022-10-06T03:55:12.407Z,11.90
2022-10-06T03:57:42.414Z,11.80
2022-10-06T04:00:12.747Z,11.90
2022-10-06T04:02:41.607Z,11.90
2022-10-06T04:05:12.584Z,11.80
2022-10-06T04:07:41.844Z,11.80
2022-10-06T04:10:11.925Z,11.80
2022-10-06T04:12:40.915Z,11.90
2022-10-06T04:15:11.140Z,11.90
2022-10-06T04:17:40.145Z,11.80
2022-10-06T04:20:09.614Z,11.90
2022-10-06T04:22:40.267Z,11.90
2022-10-06T04:25:10.518Z,11.90
2022-10-06T04:27:40.304Z,11.90
2022-10-06T04:30:13.519Z,11.80
2022-10-06T04:32:43.193Z,11.80
2022-10-06T04:35:12.537Z,11.80
2022-10-06T04:37:43.176Z,11.90
2022-10-06T04:40:13.037Z,11.90
2022-10-06T04:42:43.565Z,11.90
2022-10-06T04:45:16.366Z,11.90
2022-10-06T04:47:46.405Z,11.90
2022-10-06T04:50:15.574Z,12.00
2022-10-06T04:53:05.844Z,12.10
2022-10-06T04:55:34.996Z,12.10
2022-10-06T04:58:04.870Z,12.20
2022-10-06T05:00:33.973Z,12.20
2022-10-06T05:03:03.111Z,12.30
2022-10-06T05:05:32.919Z,12.30
2022-10-06T05:08:02.213Z,12.40
2022-10-06T05:10:33.135Z,12.40
2022-10-06T05:13:04.576Z,12.60
2022-10-06T05:15:35.671Z,12.60
2022-10-06T05:18:07.280Z,12.70
2022-10-06T05:20:37.321Z,12.80
2022-10-06T05:23:08.992Z,12.80
2022-10-06T05:25:40.554Z,13.00
2022-10-06T05:28:10.296Z,13.00
2022-10-06T05:30:40.944Z,13.20
2022-10-06T05:33:12.582Z,13.20
2022-10-06T05:35:53.022Z,13.30
2022-10-06T05:38:28.169Z,13.40
2022-10-06T05:41:05.091Z,13.50
2022-10-06T05:43:36.465Z,13.50
2022-10-06T05:46:08.132Z,13.80
2022-10-06T05:48:38.039Z,14.80
2022-10-06T05:51:10.118Z,16.40
2022-10-06T05:53:42.024Z,18.00
2022-10-06T05:56:15.184Z,19.40
2022-10-06T05:58:46.903Z,20.70
2022-10-06T06:01:19.566Z,22.00
2022-10-06T06:03:52.475Z,23.10
2022-10-06T06:06:24.903Z,23.80
2022-10-06T06:08:58.902Z,24.30
2022-10-06T06:11:31.840Z,24.70
2022-10-06T06:14:03.003Z,25.00
2022-10-06T06:16:32.660Z,25.10
2022-10-06T06:19:03.721Z,25.50
2022-10-06T06:21:34.723Z,25.80
2022-10-06T06:24:05.425Z,26.20
2022-10-06T06:26:38.689Z,26.70
2022-10-06T06:29:08.470Z,26.70
2022-10-06T06:31:44.173Z,26.70
2022-10-06T06:34:14.183Z,26.90
2022-10-06T06:36:47.828Z,26.70
2022-10-06T06:39:20.345Z,26.30
2022-10-06T06:41:54.430Z,25.40
2022-10-06T06:44:42.471Z,24.50
2022-10-06T06:47:35.318Z,23.80
2022-10-06T06:50:10.642Z,23.20
2022-10-06T06:52:44.279Z,22.30
2022-10-06T06:55:17.276Z,21.20
2022-10-06T06:57:49.952Z,20.50
2022-10-06T07:00:19.993Z,20.00
2022-10-06T07:02:56.481Z,19.50
2022-10-06T07:05:26.463Z,19.10
2022-10-06T07:07:56.441Z,18.70
2022-10-06T07:10:27.945Z,18.30
2022-10-06T07:12:59.168Z,18.20
2022-10-06T07:15:46.261Z,18.00
2022-10-06T07:18:33.413Z,17.70
2022-10-06T07:21:20.841Z,17.60
2022-10-06T07:24:10.680Z,17.40
2022-10-06T07:26:40.829Z,17.30
2022-10-06T07:29:12.165Z,17.20
2022-10-06T07:31:44.000Z,17.20
2022-10-06T07:34:13.574Z,17.10
2022-10-06T07:36:54.772Z,17.00
2022-10-06T07:39:24.730Z,17.00
2022-10-06T07:41:54.372Z,17.00
2022-10-06T07:44:25.449Z,17.00
2022-10-06T07:46:56.711Z,17.10
2022-10-06T07:49:38.485Z,17.00
2022-10-06T07:52:08.873Z,16.90
2022-10-06T07:54:38.391Z,17.00
2022-10-06T07:57:20.030Z,16.90
2022-10-06T07:59:51.229Z,16.90
2022-10-06T08:02:20.780Z,17.00
2022-10-06T08:04:50.383Z,17.00
2022-10-06T08:07:19.969Z,16.90
2022-10-06T08:09:49.441Z,16.90
2022-10-06T08:12:40.317Z,16.80
2022-10-06T08:15:14.631Z,16.90
2022-10-06T08:17:48.997Z,17.00
2022-10-06T08:20:18.725Z,17.10
2022-10-06T08:22:49.868Z,17.20
2022-10-06T08:25:19.802Z,17.40
2022-10-06T08:27:53.428Z,17.50
2022-10-06T08:30:27.428Z,17.70
2022-10-06T08:32:58.904Z,18.00
2022-10-06T08:35:29.390Z,18.30
2022-10-06T08:37:58.933Z,18.90
2022-10-06T08:40:30.268Z,19.50
2022-10-06T08:43:02.701Z,19.90
2022-10-06T08:45:38.921Z,20.30
2022-10-06T08:48:14.667Z,20.80
2022-10-06T08:50:55.498Z,21.10
2022-10-06T08:53:32.191Z,21.40
2022-10-06T08:56:09.258Z,21.70
2022-10-06T08:58:48.466Z,21.90
2022-10-06T09:01:21.367Z,22.10
2022-10-06T09:03:53.068Z,22.40
2022-10-06T09:06:43.060Z,22.70
2022-10-06T09:09:25.636Z,23.10
2022-10-06T09:12:08.349Z,23.20
2022-10-06T09:14:43.423Z,23.10
2022-10-06T09:17:22.630Z,22.90
2022-10-06T09:19:56.736Z,22.60
2022-10-06T09:22:26.829Z,22.50
2022-10-06T09:25:00.787Z,22.30
2022-10-06T09:27:34.706Z,22.30
2022-10-06T09:30:05.025Z,22.30
2022-10-06T09:32:37.427Z,22.40
2022-10-06T09:35:19.547Z,22.20
2022-10-06T09:37:57.548Z,22.00
2022-10-06T09:40:38.162Z,21.80
2022-10-06T09:43:18.546Z,21.90
2022-10-06T09:45:48.124Z,22.20
2022-10-06T09:48:25.177Z,22.20
2022-10-06T09:51:14.483Z,22.30
2022-10-06T09:53:44.840Z,22.30
2022-10-06T09:56:19.190Z,22.40
2022-10-06T09:58:58.113Z,22.50
2022-10-06T10:01:29.376Z,22.40
2022-10-06T10:04:20.980Z,22.40
2022-10-06T10:06:52.189Z,22.60
2022-10-06T10:09:30.749Z,22.80
2022-10-06T10:12:28.324Z,23.00
2022-10-06T10:15:00.266Z,23.10
2022-10-06T10:17:41.540Z,23.00
2022-10-06T10:20:34.542Z,22.90
2022-10-06T10:23:28.564Z,22.90
2022-10-06T10:26:19.340Z,22.90
2022-10-06T10:29:17.700Z,23.10
2022-10-06T10:31:54.670Z,23.00
2022-10-06T10:34:39.851Z,22.90
2022-10-06T10:37:15.620Z,22.70
2022-10-06T10:39:52.623Z,22.70
2022-10-06T10:42:29.101Z,22.70
2022-10-06T10:45:02.182Z,22.60
2022-10-06T10:47:41.610Z,22.70
2022-10-06T10:50:22.901Z,22.50
2022-10-06T10:52:57.140Z,22.40
2022-10-06T10:55:31.706Z,22.30
2022-10-06T10:58:07.980Z,22.00
2022-10-06T11:03:30.103Z,21.70
2022-10-06T11:06:22.900Z,21.40
2022-10-06T11:09:00.501Z,21.10
2022-10-06T11:11:52.227Z,21.00
2022-10-06T11:14:39.054Z,20.80
2022-10-06T11:17:19.631Z,20.70
2022-10-06T11:19:59.864Z,20.60
2022-10-06T11:22:37.306Z,20.50
2022-10-06T11:25:22.094Z,20.50
2022-10-06T11:28:01.830Z,20.50
2022-10-06T11:30:35.784Z,20.60
2022-10-06T11:33:16.515Z,20.80
2022-10-06T11:35:49.627Z,20.90
2022-10-06T11:38:27.454Z,20.90
2022-10-06T11:41:10.506Z,21.10
2022-10-06T11:43:48.103Z,21.20
2022-10-06T11:46:32.224Z,21.30
2022-10-06T11:49:54.620Z,21.30
2022-10-06T11:52:57.547Z,21.40
2022-10-06T11:55:29.614Z,21.40
2022-10-06T12:01:06.029Z,21.40
2022-10-06T12:04:06.102Z,21.30
2022-10-06T12:06:54.813Z,21.20
2022-10-06T12:09:42.566Z,21.00
2022-10-06T12:13:21.234Z,20.90
2022-10-06T12:19:12.483Z,21.00
2022-10-06T12:21:51.561Z,20.90
2022-10-06T12:24:32.018Z,21.00
2022-10-06T12:27:26.526Z,20.90
2022-10-06T12:30:03.281Z,21.20
2022-10-06T12:32:55.346Z,21.30
2022-10-06T12:35:30.212Z,21.40
2022-10-06T12:38:05.154Z,21.50
2022-10-06T12:40:56.338Z,21.50
2022-10-06T12:44:04.372Z,21.60
2022-10-06T12:46:47.614Z,21.50
2022-10-06T12:49:46.121Z,21.40
2022-10-06T12:52:38.615Z,21.30
2022-10-06T12:55:36.855Z,21.00
2022-10-06T12:58:12.125Z,20.80
2022-10-06T13:00:43.722Z,20.70
2022-10-06T13:03:19.762Z,20.70
2022-10-06T13:05:57.014Z,20.60
2022-10-06T13:08:28.293Z,20.60
2022-10-06T13:11:15.131Z,20.40
2022-10-06T13:13:52.296Z,20.30
2022-10-06T13:16:25.190Z,20.20
2022-10-06T13:18:58.048Z,20.20
2022-10-06T13:21:32.130Z,20.20
2022-10-06T13:24:02.041Z,20.10
2022-10-06T13:26:33.094Z,20.00
2022-10-06T13:29:03.524Z,20.10
2022-10-06T13:31:35.614Z,20.00
2022-10-06T13:34:07.884Z,20.10
2022-10-06T13:36:41.244Z,20.00
2022-10-06T13:39:15.604Z,20.10
2022-10-06T13:41:47.605Z,20.20
2022-10-06T13:44:32.512Z,20.40
2022-10-06T13:47:05.519Z,20.50
2022-10-06T13:49:43.432Z,20.50
2022-10-06T13:52:20.765Z,20.60
2022-10-06T13:54:54.247Z,20.70
2022-10-06T13:57:37.847Z,20.80
2022-10-06T14:00:18.565Z,20.90
2022-10-06T14:02:51.125Z,21.10
2022-10-06T14:05:30.766Z,21.10
2022-10-06T14:08:04.450Z,21.00
2022-10-06T14:10:46.423Z,21.00
2022-10-06T14:13:21.362Z,21.00
2022-10-06T14:15:53.432Z,21.00
2022-10-06T14:18:26.568Z,21.00
2022-10-06T14:21:00.690Z,21.00
2022-10-06T14:23:49.672Z,21.00
2022-10-06T14:26:21.846Z,20.90
2022-10-06T14:28:54.005Z,20.80
2022-10-06T14:31:24.821Z,20.80
2022-10-06T14:33:56.008Z,20.70
2022-10-06T14:36:28.010Z,20.70
2022-10-06T14:39:00.806Z,20.60
2022-10-06T14:41:31.930Z,20.40
2022-10-06T14:44:03.286Z,20.30
2022-10-06T14:46:34.985Z,20.30
2022-10-06T14:49:07.887Z,20.30
2022-10-06T14:51:38.407Z,20.20
2022-10-06T14:54:11.752Z,20.10
2022-10-06T14:56:42.601Z,20.10
2022-10-06T14:59:17.376Z,20.00
2022-10-06T15:01:48.153Z,19.90
2022-10-06T15:04:20.555Z,19.80
2022-10-06T15:07:08.086Z,19.80
2022-10-06T15:09:39.405Z,19.80
2022-10-06T15:12:09.486Z,19.80
2022-10-06T15:14:40.185Z,19.80
2022-10-06T15:17:10.032Z,19.80
2022-10-06T15:19:40.687Z,19.70
2022-10-06T15:22:10.845Z,19.80
2022-10-06T15:24:43.600Z,19.80
2022-10-06T15:27:30.759Z,19.80
2022-10-06T15:30:00.568Z,19.90
2022-10-06T15:32:30.393Z,19.90
2022-10-06T15:35:00.688Z,19.80
2022-10-06T15:37:30.395Z,19.80
2022-10-06T15:40:02.042Z,19.60
2022-10-06T15:42:31.807Z,19.50
2022-10-06T15:45:06.527Z,19.40
2022-10-06T15:47:37.193Z,19.40
2022-10-06T15:50:07.606Z,19.20
2022-10-06T15:52:37.405Z,19.10
2022-10-06T15:55:10.885Z,18.90
2022-10-06T15:57:43.686Z,18.80
2022-10-06T16:00:15.012Z,18.60
2022-10-06T16:02:45.306Z,18.50
2022-10-06T16:05:34.641Z,18.30
2022-10-06T16:08:04.365Z,18.20
2022-10-06T16:10:35.446Z,18.00
2022-10-06T16:13:05.994Z,18.00
2022-10-06T16:15:35.520Z,17.80
2022-10-06T16:18:05.285Z,17.80
2022-10-06T16:20:34.846Z,17.70
2022-10-06T16:23:04.676Z,17.70
2022-10-06T16:25:37.285Z,17.60
2022-10-06T16:28:06.967Z,17.60
2022-10-06T16:30:36.685Z,17.50
2022-10-06T16:33:06.486Z,17.40
2022-10-06T16:35:37.436Z,17.30
2022-10-06T16:38:07.168Z,17.30
2022-10-06T16:40:38.245Z,17.30
2022-10-06T16:43:08.002Z,17.10
2022-10-06T16:45:40.313Z,17.10
2022-10-06T16:48:09.975Z,17.10
2022-10-06T16:50:47.005Z,17.00
2022-10-06T17:01:40.853Z,16.80
2022-10-06T17:04:12.157Z,16.80
2022-10-06T17:06:43.899Z,16.70
2022-10-06T17:09:15.252Z,16.60
2022-10-06T17:11:46.512Z,16.60
2022-10-06T17:14:16.462Z,16.60
2022-10-06T17:16:48.758Z,16.50
2022-10-06T17:19:19.029Z,16.50
2022-10-06T17:21:51.740Z,16.40
2022-10-06T17:24:25.851Z,16.40
2022-10-06T17:26:54.969Z,16.40
2022-10-06T17:29:25.085Z,16.30
2022-10-06T17:31:59.673Z,16.30
2022-10-06T17:34:32.764Z,16.30
2022-10-06T17:37:03.602Z,16.30
2022-10-06T17:39:32.942Z,16.20
2022-10-06T17:42:02.518Z,16.20
2022-10-06T17:44:32.281Z,16.10
2022-10-06T17:47:03.473Z,16.30
2022-10-06T17:49:34.933Z,16.20
2022-10-06T17:52:04.650Z,16.20
2022-10-06T17:54:34.638Z,16.10
2022-10-06T17:57:07.146Z,16.00
2022-10-06T17:59:36.251Z,16.00
2022-10-06T18:02:07.543Z,15.90
2022-10-06T18:04:39.247Z,15.90
2022-10-06T18:07:10.733Z,15.80
2022-10-06T18:10:01.561Z,15.80
2022-10-06T18:12:32.579Z,15.80
2022-10-06T18:15:01.674Z,15.70
2022-10-06T18:17:33.375Z,15.70
2022-10-06T18:20:04.691Z,15.60
2022-10-06T18:22:34.053Z,15.60
2022-10-06T18:25:03.351Z,15.50
2022-10-06T18:27:33.852Z,15.50
2022-10-06T18:30:03.259Z,15.40
2022-10-06T18:34:38.538Z,15.40
2022-10-06T18:38:13.701Z,15.40
2022-10-06T18:40:43.870Z,15.40
2022-10-06T18:43:13.271Z,15.40
2022-10-06T18:46:00.041Z,15.40
2022-10-06T18:48:48.274Z,15.40
2022-10-06T18:51:17.864Z,15.40
2022-10-06T18:53:47.011Z,15.30
2022-10-06T18:56:17.250Z,15.20
2022-10-06T18:58:47.323Z,15.20
2022-10-06T19:01:17.234Z,15.20
2022-10-06T19:03:49.265Z,15.20
2022-10-06T19:06:19.815Z,15.10
2022-10-06T19:08:53.204Z,15.20
2022-10-06T19:11:40.483Z,15.20
2022-10-06T19:14:10.613Z,15.20
2022-10-06T19:16:40.028Z,15.20
2022-10-06T19:19:13.502Z,15.10
2022-10-06T19:21:45.279Z,15.10
2022-10-06T19:24:17.050Z,15.20
2022-10-06T19:26:48.384Z,15.20
2022-10-06T19:29:22.833Z,15.10
2022-10-06T19:31:54.460Z,15.10
2022-10-06T19:34:31.888Z,15.10
2022-10-06T19:37:01.733Z,15.00
2022-10-06T19:39:43.253Z,14.90
2022-10-06T19:42:30.602Z,14.80
2022-10-06T19:45:00.210Z,14.80
2022-10-06T19:47:30.501Z,14.80
2022-10-06T19:50:10.430Z,14.80
2022-10-06T19:52:41.359Z,14.80
2022-10-06T19:55:10.936Z,14.70
2022-10-06T19:57:40.057Z,14.70
2022-10-06T20:00:11.020Z,14.60
2022-10-06T20:02:44.250Z,14.60
2022-10-06T20:05:17.347Z,14.60
2022-10-06T20:07:48.156Z,14.50
2022-10-06T20:10:17.659Z,14.50
2022-10-06T20:12:46.708Z,14.40
2022-10-06T20:15:15.742Z,14.30
2022-10-06T20:17:46.988Z,14.20
2022-10-06T20:20:20.762Z,14.20
2022-10-06T20:22:50.016Z,14.20
2022-10-06T20:25:19.049Z,14.00
2022-10-06T20:27:48.698Z,14.00
2022-10-06T20:30:17.784Z,14.00
2022-10-06T20:32:47.018Z,14.00
2022-10-06T20:35:17.806Z,13.90
2022-10-06T20:37:47.439Z,13.90
2022-10-06T20:40:34.441Z,13.80
2022-10-06T20:43:03.647Z,13.70
2022-10-06T20:45:34.489Z,13.70
2022-10-06T20:48:03.701Z,13.60
2022-10-06T20:50:35.067Z,13.60
2022-10-06T20:53:04.260Z,13.60
2022-10-06T20:55:33.505Z,13.50
2022-10-06T20:58:02.530Z,13.50
2022-10-06T21:00:31.798Z,13.40
2022-10-06T21:03:01.189Z,13.40
2022-10-06T21:05:33.334Z,13.30
2022-10-06T21:08:03.994Z,13.20
2022-10-06T21:10:33.133Z,13.30
2022-10-06T21:13:02.413Z,13.20
2022-10-06T21:15:31.635Z,13.20
2022-10-06T21:18:01.575Z,13.20
2022-10-06T21:20:30.618Z,13.20
2022-10-06T21:23:00.216Z,13.20
2022-10-06T21:25:30.797Z,13.20
2022-10-06T21:27:59.996Z,13.10
2022-10-06T21:30:29.205Z,13.10
2022-10-06T21:32:58.778Z,13.10
2022-10-06T21:35:27.933Z,13.00
2022-10-06T21:37:57.319Z,13.00
2022-10-06T21:40:26.496Z,13.00
2022-10-06T21:42:57.026Z,12.90
2022-10-06T21:45:33.084Z,12.90
2022-10-06T21:48:02.535Z,12.90
2022-10-06T21:50:31.737Z,12.80
2022-10-06T21:53:00.920Z,12.80
2022-10-06T21:55:30.075Z,12.80
2022-10-06T21:58:01.953Z,12.70
2022-10-06T22:00:31.195Z,12.70
2022-10-06T22:03:00.509Z,12.60
2022-10-06T22:05:29.685Z,12.60
2022-10-06T22:07:59.006Z,12.60
2022-10-06T22:10:28.258Z,12.50
2022-10-06T22:12:57.567Z,12.50
2022-10-06T22:15:28.150Z,12.40
2022-10-06T22:17:57.312Z,12.40
2022-10-06T22:20:26.569Z,12.40
2022-10-06T22:22:55.816Z,12.40
2022-10-06T22:25:25.184Z,12.40
2022-10-06T22:27:54.365Z,12.30
2022-10-06T22:30:28.197Z,12.20
2022-10-06T22:32:57.404Z,12.20
2022-10-06T22:35:26.593Z,12.20
2022-10-06T22:37:55.878Z,12.10
2022-10-06T22:40:25.160Z,12.10
2022-10-06T22:42:54.353Z,12.10
2022-10-06T22:45:23.535Z,12.10
2022-10-06T22:47:56.330Z,12.00
2022-10-06T22:50:25.676Z,12.00
2022-10-06T22:52:54.956Z,11.90
2022-10-06T22:55:24.952Z,11.90
2022-10-06T22:57:56.902Z,11.90
2022-10-06T23:00:27.943Z,11.90
2022-10-06T23:03:01.790Z,11.80
2022-10-06T23:05:30.989Z,11.80
2022-10-06T23:08:00.221Z,11.70
2022-10-06T23:10:30.659Z,11.70
2022-10-06T23:13:00.623Z,11.70
2022-10-06T23:15:30.343Z,11.70
2022-10-06T23:18:00.823Z,11.60
2022-10-06T23:20:29.996Z,11.60
2022-10-06T23:22:59.210Z,11.60
2022-10-06T23:25:28.315Z,11.50
2022-10-06T23:27:57.622Z,11.50
2022-10-06T23:30:26.683Z,11.50
2022-10-06T23:32:55.704Z,11.40
2022-10-06T23:35:26.161Z,11.40
2022-10-06T23:37:55.185Z,11.40
2022-10-06T23:40:24.194Z,11.30
2022-10-06T23:42:53.251Z,11.30
2022-10-06T23:45:22.584Z,11.30
2022-10-06T23:47:51.939Z,11.30
2022-10-06T23:50:21.164Z,11.30
2022-10-06T23:52:51.663Z,11.20
2022-10-06T23:55:20.763Z,11.20
2022-10-06T23:57:49.917Z,11.10
